Station Historical Data
V 3.3 - 4-Mar-2016
Daily Summary for February 13, 2018 Units:  Metric    English   Both
« Previous Day
Next Day »
Daily Weekly Monthly Yearly Custom
  High: Low: Average:
Temperature: 26.6 °C 21.6 °C 22.7 °C
Dew Point: 24.1 °C 21.1 °C 21.8 °C
Humidity: 99% 80% 95%
Wind Speed: 7.2 km/h 0.0 km/h 1.7 km/h
Wind Gust: 13.4 km/h - -
Wind- - ESE
Pressure: 1014.8 hPa 1012.1 hPa -
Precipitation: 4.8 mm    
Historical Graphs
 
 
Tabular Data for February 13, 2018
Time Temperature Dew Point Pressure Wind Wind Speed Wind Gust Humidity Rain Rate (Hrly) Rain Day
00:04 22.1 °C 21.6 °C 1013.1 hPa NE 1.1 km/h 7.2 km/h 97% 0.0 mm 0.0mm
00:10 22.1 °C 21.6 °C 1013.1 hPa NNE 3.5 km/h 9.7 km/h 97% 0.0 mm 0.0mm
00:15 22.1 °C 21.6 °C 1013.1 hPa North 3.5 km/h 9.7 km/h 97% 0.0 mm 0.0mm
00:21 22.0 °C 21.5 °C 1013.1 hPa NE 1.1 km/h 8.7 km/h 97% 0.0 mm 0.0mm
00:27 22.0 °C 21.5 °C 1013.1 hPa NE 2.6 km/h 8.7 km/h 97% 0.0 mm 0.0mm
00:33 22.1 °C 21.6 °C 1013.1 hPa NE 5.0 km/h 9.7 km/h 97% 0.0 mm 0.0mm
00:39 22.2 °C 21.7 °C 1012.8 hPa NNE 2.6 km/h 9.7 km/h 97% 0.0 mm 0.0mm
00:46 22.2 °C 21.7 °C 1013.1 hPa NNE 3.5 km/h 9.7 km/h 97% 0.0 mm 0.0mm
00:52 22.2 °C 21.7 °C 1012.8 hPa NE 1.1 km/h 9.7 km/h 97% 0.0 mm 0.0mm
00:58 22.2 °C 21.7 °C 1012.8 hPa NNE 3.5 km/h 9.7 km/h 97% 0.0 mm 0.0mm
01:03 22.2 °C 21.7 °C 1012.8 hPa NE 2.6 km/h 11.1 km/h 97% 0.0 mm 0.0mm
01:09 22.2 °C 21.7 °C 1012.8 hPa ENE 2.6 km/h 11.1 km/h 97% 0.0 mm 0.0mm
01:15 22.2 °C 21.7 °C 1012.8 hPa NNW 2.6 km/h 8.7 km/h 97% 0.0 mm 0.0mm
01:22 22.2 °C 21.7 °C 1013.1 hPa WNW 3.5 km/h 11.1 km/h 97% 0.0 mm 0.0mm
01:28 22.2 °C 21.7 °C 1012.8 hPa East 3.5 km/h 11.1 km/h 97% 0.0 mm 0.0mm
01:34 22.2 °C 21.7 °C 1012.8 hPa NNE 1.1 km/h 8.7 km/h 97% 0.0 mm 0.0mm
01:40 22.0 °C 21.5 °C 1012.8 hPa NE 2.6 km/h 8.7 km/h 97% 0.0 mm 0.0mm
01:45 22.0 °C 21.5 °C 1013.1 hPa NE 2.6 km/h 8.7 km/h 97% 0.0 mm 0.0mm
01:51 21.9 °C 21.6 °C 1012.8 hPa NE 2.6 km/h 8.7 km/h 98% 0.0 mm 0.0mm
01:57 21.9 °C 21.6 °C 1012.8 hPa North 2.6 km/h 7.2 km/h 98% 0.0 mm 0.0mm
02:04 21.9 °C 21.6 °C 1012.8 hPa NNE 2.6 km/h 7.2 km/h 98% 0.0 mm 0.0mm
02:10 21.9 °C 21.6 °C 1012.8 hPa NE 2.6 km/h 7.2 km/h 98% 0.3 mm 0.3mm
02:15 21.9 °C 21.6 °C 1012.4 hPa NNE 3.5 km/h 7.2 km/h 98% 0.3 mm 0.3mm
02:21 21.9 °C 21.6 °C 1012.8 hPa East 2.6 km/h 7.2 km/h 98% 0.3 mm 0.3mm
02:27 21.9 °C 21.6 °C 1012.8 hPa NE 2.6 km/h 8.7 km/h 98% 0.3 mm 0.3mm
02:34 21.8 °C 21.5 °C 1012.8 hPa NNE 3.5 km/h 7.2 km/h 98% 0.3 mm 0.3mm
02:40 21.8 °C 21.5 °C 1012.8 hPa North 3.5 km/h 11.1 km/h 98% 0.3 mm 0.3mm
02:46 21.8 °C 21.5 °C 1012.8 hPa North 1.1 km/h 11.1 km/h 98% 0.3 mm 0.3mm
02:52 21.8 °C 21.5 °C 1012.4 hPa NNW 3.5 km/h 8.7 km/h 98% 0.3 mm 0.3mm
02:58 21.9 °C 21.6 °C 1012.4 hPa NNW 2.6 km/h 8.7 km/h 98% 0.5 mm 0.5mm
03:04 21.9 °C 21.6 °C 1012.8 hPa North 3.5 km/h 8.7 km/h 98% 1.0 mm 1.0mm
03:10 21.9 °C 21.6 °C 1012.4 hPa North 1.1 km/h 8.7 km/h 98% 1.0 mm 1.3mm
03:16 21.9 °C 21.6 °C 1012.4 hPa West 2.6 km/h 6.1 km/h 98% 1.5 mm 1.8mm
03:22 21.9 °C 21.6 °C 1012.4 hPa West 1.1 km/h 6.1 km/h 98% 1.8 mm 2.0mm
03:27 21.9 °C 21.6 °C 1012.4 hPa NW 1.1 km/h 5.0 km/h 98% 2.3 mm 2.8mm
03:34 21.9 °C 21.6 °C 1012.1 hPa Calm   3.5 km/h 98% 2.3 mm 2.8mm
03:40 21.8 °C 21.5 °C 1012.1 hPa North 1.1 km/h 5.0 km/h 98% 2.3 mm 2.8mm
03:46 21.8 °C 21.5 °C 1012.1 hPa Calm   8.7 km/h 98% 2.3 mm 2.8mm
03:52 21.8 °C 21.5 °C 1012.1 hPa North 1.1 km/h 6.1 km/h 98% 2.3 mm 2.8mm
03:58 21.8 °C 21.5 °C 1012.1 hPa NNE 2.6 km/h 6.1 km/h 98% 2.0 mm 2.8mm
04:04 21.9 °C 21.6 °C 1012.1 hPa NNE 5.0 km/h 8.7 km/h 98% 2.0 mm 3.0mm
04:10 21.8 °C 21.5 °C 1012.1 hPa NNE 2.6 km/h 8.7 km/h 98% 1.8 mm 3.0mm
04:16 21.8 °C 21.5 °C 1012.1 hPa NNE 2.6 km/h 8.7 km/h 98% 1.3 mm 3.0mm
04:22 21.8 °C 21.5 °C 1012.1 hPa NNE 2.6 km/h 9.7 km/h 98% 1.0 mm 3.0mm
04:28 21.6 °C 21.3 °C 1012.1 hPa NNE 2.6 km/h 9.7 km/h 98% 0.3 mm 3.0mm
04:34 21.6 °C 21.3 °C 1012.1 hPa NNE 2.6 km/h 8.7 km/h 98% 0.3 mm 3.0mm
04:40 21.6 °C 21.3 °C 1012.1 hPa NNE 7.2 km/h 12.2 km/h 98% 0.3 mm 3.0mm
04:46 21.6 °C 21.3 °C 1012.4 hPa NE 3.5 km/h 12.2 km/h 98% 0.3 mm 3.0mm
04:52 21.6 °C 21.3 °C 1012.4 hPa NNE 3.5 km/h 8.7 km/h 98% 0.3 mm 3.0mm
04:58 21.8 °C 21.5 °C 1012.4 hPa NE 2.6 km/h 8.7 km/h 98% 0.3 mm 3.0mm
05:04 21.8 °C 21.5 °C 1012.4 hPa ENE 1.1 km/h 8.7 km/h 98% 0.0 mm 3.0mm
05:10 21.6 °C 21.3 °C 1012.4 hPa Calm   8.7 km/h 98% 0.3 mm 3.3mm
05:16 21.8 °C 21.5 °C 1012.8 hPa NNE 2.6 km/h 6.1 km/h 98% 0.5 mm 3.6mm
05:22 21.6 °C 21.3 °C 1012.8 hPa NW 1.1 km/h 7.2 km/h 98% 1.0 mm 3.8mm
05:28 21.6 °C 21.3 °C 1012.8 hPa SSE 3.5 km/h 7.2 km/h 98% 1.5 mm 4.6mm
05:34 21.6 °C 21.3 °C 1012.8 hPa East 1.1 km/h 6.1 km/h 98% 1.5 mm 4.6mm
05:40 21.8 °C 21.5 °C 1012.8 hPa NNE 1.1 km/h 5.0 km/h 98% 1.5 mm 4.6mm
05:46 21.8 °C 21.5 °C 1012.8 hPa North 2.6 km/h 3.5 km/h 98% 1.8 mm 4.8mm
05:52 21.8 °C 21.5 °C 1012.8 hPa North 1.1 km/h 6.1 km/h 98% 1.8 mm 4.8mm
05:58 21.8 °C 21.5 °C 1013.1 hPa North 2.6 km/h 5.0 km/h 98% 1.8 mm 4.8mm
06:04 21.6 °C 21.3 °C 1013.1 hPa NNE 3.5 km/h 7.2 km/h 98% 1.8 mm 4.8mm
06:10 21.6 °C 21.3 °C 1013.1 hPa NE 2.6 km/h 9.7 km/h 98% 1.5 mm 4.8mm
06:16 21.6 °C 21.3 °C 1012.8 hPa NNE 3.5 km/h 9.7 km/h 98% 1.3 mm 4.8mm
06:22 21.6 °C 21.3 °C 1012.8 hPa NNE 2.6 km/h 7.2 km/h 98% 1.0 mm 4.8mm
06:28 21.6 °C 21.3 °C 1012.8 hPa NNE 1.1 km/h 8.7 km/h 98% 0.3 mm 4.8mm
06:34 21.6 °C 21.3 °C 1012.8 hPa NE 1.1 km/h 8.7 km/h 98% 0.3 mm 4.8mm
06:40 21.6 °C 21.3 °C 1013.1 hPa Calm   6.1 km/h 98% 0.3 mm 4.8mm
06:46 21.6 °C 21.3 °C 1013.1 hPa NNE 1.1 km/h 7.2 km/h 98% 0.0 mm 4.8mm
06:52 21.6 °C 21.3 °C 1013.1 hPa NNE 1.1 km/h 7.2 km/h 98% 0.0 mm 4.8mm
06:58 21.6 °C 21.3 °C 1013.4 hPa NE 1.1 km/h 7.2 km/h 98% 0.0 mm 4.8mm
07:04 21.6 °C 21.3 °C 1013.1 hPa NNE 3.5 km/h 8.7 km/h 98% 0.0 mm 4.8mm
07:10 21.6 °C 21.3 °C 1013.1 hPa North 1.1 km/h 9.7 km/h 98% 0.0 mm 4.8mm
07:16 21.6 °C 21.3 °C 1013.1 hPa NNE 1.1 km/h 9.7 km/h 98% 0.0 mm 4.8mm
07:22 21.6 °C 21.3 °C 1013.1 hPa NE 1.1 km/h 5.0 km/h 98% 0.0 mm 4.8mm
07:28 21.6 °C 21.3 °C 1013.1 hPa Calm   5.0 km/h 98% 0.0 mm 4.8mm
07:34 21.8 °C 21.5 °C 1013.4 hPa Calm   6.1 km/h 98% 0.0 mm 4.8mm
07:40 21.8 °C 21.5 °C 1013.4 hPa Calm   5.0 km/h 98% 0.0 mm 4.8mm
07:46 21.8 °C 21.5 °C 1013.4 hPa Calm   6.1 km/h 98% 0.0 mm 4.8mm
07:52 21.8 °C 21.5 °C 1013.4 hPa North 5.0 km/h 7.2 km/h 98% 0.0 mm 4.8mm
07:58 21.8 °C 21.5 °C 1013.4 hPa NNW 1.1 km/h 7.2 km/h 98% 0.0 mm 4.8mm
08:04 21.9 °C 21.6 °C 1013.4 hPa North 2.6 km/h 7.2 km/h 98% 0.0 mm 4.8mm
08:10 21.9 °C 21.6 °C 1013.4 hPa North 1.1 km/h 7.2 km/h 98% 0.0 mm 4.8mm
08:16 21.9 °C 21.6 °C 1013.4 hPa North 1.1 km/h 7.2 km/h 98% 0.0 mm 4.8mm
08:22 21.9 °C 21.6 °C 1013.4 hPa Calm   7.2 km/h 98% 0.0 mm 4.8mm
08:28 21.9 °C 21.6 °C 1013.4 hPa NNE 2.6 km/h 7.2 km/h 98% 0.0 mm 4.8mm
08:34 21.9 °C 21.6 °C 1013.4 hPa Calm   7.2 km/h 98% 0.0 mm 4.8mm
08:40 21.9 °C 21.6 °C 1013.4 hPa NNE 2.6 km/h 6.1 km/h 98% 0.0 mm 4.8mm
08:46 21.9 °C 21.6 °C 1013.4 hPa Calm   6.1 km/h 98% 0.0 mm 4.8mm
08:52 22.1 °C 21.6 °C 1013.4 hPa Calm   5.0 km/h 97% 0.0 mm 4.8mm
08:58 22.1 °C 21.6 °C 1013.4 hPa North 3.5 km/h 6.1 km/h 97% 0.0 mm 4.8mm
09:04 22.2 °C 21.7 °C 1013.4 hPa Calm   6.1 km/h 97% 0.0 mm 4.8mm
09:10 22.2 °C 21.7 °C 1013.4 hPa Calm   5.0 km/h 97% 0.0 mm 4.8mm
09:16 22.3 °C 21.8 °C 1013.4 hPa NNE 1.1 km/h 6.1 km/h 97% 0.0 mm 4.8mm
09:22 22.3 °C 21.8 °C 1013.8 hPa Calm   6.1 km/h 97% 0.0 mm 4.8mm
09:28 22.4 °C 21.9 °C 1013.8 hPa Calm   5.0 km/h 97% 0.0 mm 4.8mm
09:34 22.3 °C 21.8 °C 1013.8 hPa Calm   6.1 km/h 97% 0.0 mm 4.8mm
09:40 22.4 °C 21.9 °C 1014.1 hPa Calm   6.1 km/h 97% 0.0 mm 4.8mm
09:46 22.3 °C 21.8 °C 1013.8 hPa North 1.1 km/h 7.2 km/h 97% 0.0 mm 4.8mm
09:52 22.4 °C 21.9 °C 1013.8 hPa Calm   7.2 km/h 97% 0.0 mm 4.8mm
09:58 22.4 °C 21.9 °C 1013.8 hPa Calm   6.1 km/h 97% 0.0 mm 4.8mm
10:04 22.5 °C 22.0 °C 1014.1 hPa NNE 3.5 km/h 5.0 km/h 97% 0.0 mm 4.8mm
10:10 22.5 °C 22.0 °C 1013.8 hPa Calm   6.1 km/h 97% 0.0 mm 4.8mm
10:16 22.7 °C 22.2 °C 1013.8 hPa NE 3.5 km/h 7.2 km/h 97% 0.0 mm 4.8mm
10:22 22.7 °C 22.2 °C 1014.1 hPa NE 5.0 km/h 7.2 km/h 97% 0.0 mm 4.8mm
10:28 22.5 °C 22.0 °C 1014.4 hPa NE 2.6 km/h 9.7 km/h 97% 0.0 mm 4.8mm
10:34 22.5 °C 22.0 °C 1014.1 hPa NNE 1.1 km/h 9.7 km/h 97% 0.0 mm 4.8mm
10:42 22.3 °C 21.8 °C 1014.4 hPa NNE 3.5 km/h 8.7 km/h 97% 0.0 mm 4.8mm
10:48 22.3 °C 21.8 °C 1014.1 hPa NE 5.0 km/h 7.2 km/h 97% 0.0 mm 4.8mm
10:54 22.2 °C 21.7 °C 1014.4 hPa Calm   7.2 km/h 97% 0.0 mm 4.8mm
11:00 22.3 °C 21.8 °C 1014.4 hPa NNE 1.1 km/h 7.2 km/h 97% 0.0 mm 4.8mm
11:06 22.3 °C 21.8 °C 1014.4 hPa ENE 1.1 km/h 7.2 km/h 97% 0.0 mm 4.8mm
11:12 22.3 °C 21.8 °C 1014.4 hPa ENE 2.6 km/h 7.2 km/h 97% 0.0 mm 4.8mm
11:18 22.3 °C 21.8 °C 1014.4 hPa NNE 1.1 km/h 6.1 km/h 97% 0.0 mm 4.8mm
11:24 22.4 °C 21.9 °C 1014.4 hPa NNE 2.6 km/h 7.2 km/h 97% 0.0 mm 4.8mm
11:30 22.4 °C 21.9 °C 1014.4 hPa NNE 1.1 km/h 8.7 km/h 97% 0.0 mm 4.8mm
11:36 22.4 °C 21.9 °C 1014.4 hPa NNE 2.6 km/h 8.7 km/h 97% 0.0 mm 4.8mm
11:42 22.6 °C 22.1 °C 1014.8 hPa Calm   7.2 km/h 97% 0.0 mm 4.8mm
11:48 22.7 °C 22.2 °C 1014.8 hPa North 2.6 km/h 5.0 km/h 97% 0.0 mm 4.8mm
11:54 22.7 °C 22.2 °C 1014.8 hPa Calm   7.2 km/h 97% 0.0 mm 4.8mm
12:00 22.8 °C 22.3 °C 1014.8 hPa ENE 1.1 km/h 7.2 km/h 97% 0.0 mm 4.8mm
12:06 22.8 °C 22.3 °C 1014.4 hPa NNE 1.1 km/h 5.0 km/h 97% 0.0 mm 4.8mm
12:12 22.8 °C 22.3 °C 1014.8 hPa Calm   5.0 km/h 97% 0.0 mm 4.8mm
12:18 22.9 °C 22.4 °C 1014.4 hPa Calm   8.7 km/h 97% 0.0 mm 4.8mm
12:24 22.9 °C 22.4 °C 1014.4 hPa Calm   8.7 km/h 97% 0.0 mm 4.8mm
12:30 23.0 °C 22.9 °C 1014.4 hPa Calm   5.0 km/h 99% 0.0 mm 4.8mm
12:36 23.0 °C 22.9 °C 1014.4 hPa Calm   5.0 km/h 99% 0.0 mm 4.8mm
12:42 23.2 °C 23.1 °C 1014.4 hPa Calm   5.0 km/h 99% 0.0 mm 4.8mm
12:48 23.4 °C 23.1 °C 1014.4 hPa West 1.1 km/h 5.0 km/h 98% 0.0 mm 4.8mm
12:54 23.6 °C 23.3 °C 1014.4 hPa North 1.1 km/h 6.1 km/h 98% 0.0 mm 4.8mm
13:00 23.7 °C 23.4 °C 1014.4 hPa NE 3.5 km/h 7.2 km/h 98% 0.0 mm 4.8mm
13:06 24.1 °C 23.4 °C 1014.4 hPa NNE 1.1 km/h 7.2 km/h 96% 0.0 mm 4.8mm
13:12 24.4 °C 23.8 °C 1014.1 hPa NE 3.5 km/h 9.7 km/h 96% 0.0 mm 4.8mm
13:18 24.6 °C 23.8 °C 1014.1 hPa NE 1.1 km/h 9.7 km/h 95% 0.0 mm 4.8mm
13:24 24.9 °C 23.7 °C 1014.1 hPa East 2.6 km/h 6.1 km/h 93% 0.0 mm 4.8mm
13:30 25.5 °C 24.1 °C 1013.8 hPa NNE 2.6 km/h 7.2 km/h 92% 0.0 mm 4.8mm
13:36 25.6 °C 23.9 °C 1014.1 hPa Calm   8.7 km/h 90% 0.0 mm 4.8mm
13:42 25.7 °C 23.9 °C 1014.1 hPa North 2.6 km/h 8.7 km/h 90% 0.0 mm 4.8mm
13:48 25.7 °C 23.6 °C 1014.1 hPa NNE 1.1 km/h 8.7 km/h 88% 0.0 mm 4.8mm
13:54 25.8 °C 23.5 °C 1014.1 hPa NE 5.0 km/h 8.7 km/h 87% 0.0 mm 4.8mm
14:00 25.8 °C 23.1 °C 1013.8 hPa NE 5.0 km/h 13.4 km/h 85% 0.0 mm 4.8mm
14:06 26.2 °C 23.1 °C 1013.8 hPa NE 5.0 km/h 13.4 km/h 83% 0.0 mm 4.8mm
14:12 26.6 °C 23.3 °C 1013.8 hPa NE 3.5 km/h 11.1 km/h 82% 0.0 mm 4.8mm
14:18 26.5 °C 22.8 °C 1013.8 hPa NNE 2.6 km/h 8.7 km/h 80% 0.0 mm 4.8mm
14:24 26.3 °C 22.6 °C 1013.8 hPa NNE 1.1 km/h 7.2 km/h 80% 0.0 mm 4.8mm
14:30 25.8 °C 22.3 °C 1013.8 hPa NNW 2.6 km/h 11.1 km/h 81% 0.0 mm 4.8mm
14:36 25.8 °C 22.5 °C 1014.1 hPa NNW 2.6 km/h 11.1 km/h 82% 0.0 mm 4.8mm
14:42 25.3 °C 22.1 °C 1013.8 hPa North 2.6 km/h 7.2 km/h 82% 0.0 mm 4.8mm
14:48 24.8 °C 21.9 °C 1014.1 hPa Calm   9.7 km/h 84% 0.0 mm 4.8mm
14:54 24.9 °C 22.4 °C 1014.1 hPa NNE 3.5 km/h 7.2 km/h 86% 0.0 mm 4.8mm
15:00 24.5 °C 22.1 °C 1014.1 hPa NNE 2.6 km/h 7.2 km/h 86% 0.0 mm 4.8mm
15:06 24.3 °C 22.0 °C 1013.8 hPa NW 1.1 km/h 8.7 km/h 87% 0.0 mm 4.8mm
15:12 24.3 °C 22.2 °C 1013.8 hPa Calm   6.1 km/h 88% 0.0 mm 4.8mm
15:18 24.5 °C 22.4 °C 1014.1 hPa NE 1.1 km/h 6.1 km/h 88% 0.0 mm 4.8mm
15:24 24.4 °C 22.3 °C 1014.1 hPa NNE 3.5 km/h 7.2 km/h 88% 0.0 mm 4.8mm
15:30 24.1 °C 22.0 °C 1013.8 hPa NNE 2.6 km/h 7.2 km/h 88% 0.0 mm 4.8mm
15:36 24.2 °C 22.3 °C 1013.8 hPa North 1.1 km/h 7.2 km/h 89% 0.0 mm 4.8mm
15:42 24.1 °C 22.2 °C 1013.8 hPa NNW 1.1 km/h 8.7 km/h 89% 0.0 mm 4.8mm
15:48 24.1 °C 22.2 °C 1013.4 hPa Calm   8.7 km/h 89% 0.0 mm 4.8mm
15:54 24.4 °C 22.5 °C 1013.4 hPa NNE 2.6 km/h 7.2 km/h 89% 0.0 mm 4.8mm
16:00 24.6 °C 22.7 °C 1013.4 hPa NNE 2.6 km/h 7.2 km/h 89% 0.0 mm 4.8mm
16:06 24.4 °C 22.3 °C 1013.4 hPa NE 3.5 km/h 7.2 km/h 88% 0.0 mm 4.8mm
16:12 24.0 °C 21.9 °C 1013.1 hPa NNE 1.1 km/h 7.2 km/h 88% 0.0 mm 4.8mm
16:18 23.8 °C 22.1 °C 1013.4 hPa NNE 2.6 km/h 7.2 km/h 90% 0.0 mm 4.8mm
16:24 23.7 °C 22.2 °C 1013.1 hPa NE 2.6 km/h 8.7 km/h 91% 0.0 mm 4.8mm
16:30 23.7 °C 22.2 °C 1013.1 hPa East 3.5 km/h 8.7 km/h 91% 0.0 mm 4.8mm
16:36 24.0 °C 22.4 °C 1013.1 hPa NE 2.6 km/h 7.2 km/h 91% 0.0 mm 4.8mm
16:42 24.4 °C 22.7 °C 1012.8 hPa North 3.5 km/h 9.7 km/h 90% 0.0 mm 4.8mm
16:48 24.8 °C 22.9 °C 1012.4 hPa NNE 3.5 km/h 9.7 km/h 89% 0.0 mm 4.8mm
16:54 25.2 °C 22.9 °C 1012.8 hPa NNE 1.1 km/h 7.2 km/h 87% 0.0 mm 4.8mm
17:00 25.4 °C 22.9 °C 1012.4 hPa NNE 1.1 km/h 7.2 km/h 86% 0.0 mm 4.8mm
17:06 25.1 °C 22.2 °C 1012.4 hPa North 2.6 km/h 9.7 km/h 84% 0.0 mm 4.8mm
17:12 24.8 °C 22.3 °C 1012.4 hPa NE 3.5 km/h 11.1 km/h 86% 0.0 mm 4.8mm
17:18 24.9 °C 22.6 °C 1012.1 hPa Calm   11.1 km/h 87% 0.0 mm 4.8mm
17:24 24.8 °C 22.5 °C 1012.1 hPa NE 2.6 km/h 8.7 km/h 87% 0.0 mm 4.8mm
17:30 24.7 °C 22.4 °C 1012.1 hPa NE 1.1 km/h 9.7 km/h 87% 0.0 mm 4.8mm
17:36 24.7 °C 22.4 °C 1012.1 hPa ENE 2.6 km/h 11.1 km/h 87% 0.0 mm 4.8mm
17:42 24.7 °C 22.4 °C 1012.1 hPa NNE 1.1 km/h 11.1 km/h 87% 0.0 mm 4.8mm
17:48 25.3 °C 22.8 °C 1012.1 hPa NNW 2.6 km/h 11.1 km/h 86% 0.0 mm 4.8mm
17:54 25.2 °C 22.3 °C 1012.4 hPa NNE 1.1 km/h 9.7 km/h 84% 0.0 mm 4.8mm
18:00 24.8 °C 22.1 °C 1012.4 hPa NNE 3.5 km/h 8.7 km/h 85% 0.0 mm 4.8mm
18:06 24.4 °C 21.9 °C 1012.8 hPa NE 3.5 km/h 8.7 km/h 86% 0.0 mm 4.8mm
18:12 23.8 °C 21.7 °C 1012.8 hPa NE 2.6 km/h 8.7 km/h 88% 0.0 mm 4.8mm
18:18 23.5 °C 21.6 °C 1012.4 hPa NNE 2.6 km/h 8.7 km/h 89% 0.0 mm 4.8mm
18:24 23.5 °C 21.9 °C 1012.8 hPa NNE 1.1 km/h 8.7 km/h 91% 0.0 mm 4.8mm
18:30 23.4 °C 22.1 °C 1012.8 hPa NE 1.1 km/h 7.2 km/h 92% 0.0 mm 4.8mm
18:36 23.3 °C 21.9 °C 1012.4 hPa NE 2.6 km/h 7.2 km/h 92% 0.0 mm 4.8mm
18:42 23.3 °C 21.9 °C 1012.4 hPa NNE 1.1 km/h 7.2 km/h 92% 0.0 mm 4.8mm
18:48 23.3 °C 21.9 °C 1012.8 hPa NNE 1.1 km/h 6.1 km/h 92% 0.0 mm 4.8mm
18:54 23.3 °C 21.9 °C 1012.8 hPa NE 5.0 km/h 8.7 km/h 92% 0.0 mm 4.8mm
19:00 23.3 °C 22.1 °C 1012.8 hPa Calm   8.7 km/h 93% 0.0 mm 4.8mm
19:06 23.2 °C 22.1 °C 1012.8 hPa North 1.1 km/h 6.1 km/h 93% 0.0 mm 4.8mm
19:12 23.1 °C 21.9 °C 1012.8 hPa NNW 1.1 km/h 7.2 km/h 93% 0.0 mm 4.8mm
19:18 23.1 °C 21.9 °C 1012.8 hPa NNW 2.6 km/h 7.2 km/h 93% 0.0 mm 4.8mm
19:24 22.9 °C 21.6 °C 1012.8 hPa NNE 3.5 km/h 7.2 km/h 92% 0.0 mm 4.8mm
19:30 22.7 °C 21.3 °C 1012.8 hPa NW 1.1 km/h 7.2 km/h 92% 0.0 mm 4.8mm
19:36 22.7 °C 21.3 °C 1013.1 hPa NNW 2.6 km/h 6.1 km/h 92% 0.0 mm 4.8mm
19:42 22.6 °C 21.3 °C 1013.1 hPa NNW 5.0 km/h 7.2 km/h 92% 0.0 mm 4.8mm
19:48 22.5 °C 21.3 °C 1013.1 hPa NNE 1.1 km/h 6.1 km/h 93% 0.0 mm 4.8mm
19:54 22.5 °C 21.3 °C 1013.1 hPa NNE 3.5 km/h 7.2 km/h 93% 0.0 mm 4.8mm
20:00 22.4 °C 21.2 °C 1013.4 hPa NE 2.6 km/h 6.1 km/h 93% 0.0 mm 4.8mm
20:06 22.4 °C 21.4 °C 1013.1 hPa North 1.1 km/h 5.0 km/h 94% 0.0 mm 4.8mm
20:12 22.3 °C 21.3 °C 1013.1 hPa Calm   6.1 km/h 94% 0.0 mm 4.8mm
20:18 22.3 °C 21.3 °C 1012.8 hPa WNW 1.1 km/h 6.1 km/h 94% 0.0 mm 4.8mm
20:24 22.3 °C 21.3 °C 1013.1 hPa NW 2.6 km/h 6.1 km/h 94% 0.0 mm 4.8mm
20:30 22.3 °C 21.3 °C 1013.1 hPa North 2.6 km/h 6.1 km/h 94% 0.0 mm 4.8mm
20:36 22.1 °C 21.1 °C 1012.8 hPa Calm   5.0 km/h 94% 0.0 mm 4.8mm
20:42 22.0 °C 21.2 °C 1013.1 hPa Calm   5.0 km/h 95% 0.0 mm 4.8mm
20:48 22.0 °C 21.2 °C 1013.4 hPa Calm   3.5 km/h 95% 0.0 mm 4.8mm
20:54 22.0 °C 21.2 °C 1013.4 hPa Calm   3.5 km/h 95% 0.0 mm 4.8mm
21:00 22.0 °C 21.2 °C 1013.1 hPa Calm   3.5 km/h 95% 0.0 mm 4.8mm
21:06 22.0 °C 21.2 °C 1012.8 hPa Calm   2.6 km/h 95% 0.0 mm 4.8mm
21:12 21.7 °C 21.1 °C 1013.1 hPa Calm     96% 0.0 mm 4.8mm
21:18 21.7 °C 21.1 °C 1013.1 hPa Calm     96% 0.0 mm 4.8mm
21:24 21.7 °C 21.1 °C 1013.4 hPa Calm   1.1 km/h 96% 0.0 mm 4.8mm
21:30 22.0 °C 21.2 °C 1013.8 hPa Calm   2.6 km/h 95% 0.0 mm 4.8mm
21:36 22.0 °C 21.2 °C 1013.8 hPa Calm   2.6 km/h 95% 0.0 mm 4.8mm
21:42 22.0 °C 21.2 °C 1013.8 hPa NNW 1.1 km/h 2.6 km/h 95% 0.0 mm 4.8mm
21:48 22.0 °C 21.2 °C 1013.8 hPa NW 1.1 km/h 2.6 km/h 95% 0.0 mm 4.8mm
21:54 22.0 °C 21.2 °C 1013.8 hPa Calm   2.6 km/h 95% 0.0 mm 4.8mm
22:00 22.0 °C 21.2 °C 1014.1 hPa Calm   2.6 km/h 95% 0.0 mm 4.8mm
22:06 22.0 °C 21.2 °C 1014.1 hPa NNW 2.6 km/h 3.5 km/h 95% 0.0 mm 4.8mm
22:12 22.1 °C 21.3 °C 1014.4 hPa NW 1.1 km/h 5.0 km/h 95% 0.0 mm 4.8mm
22:18 22.1 °C 21.3 °C 1014.4 hPa Calm   3.5 km/h 95% 0.0 mm 4.8mm
22:26 22.0 °C 21.2 °C 1014.4 hPa Calm   3.5 km/h 95% 0.0 mm 4.8mm
22:32 22.0 °C 21.2 °C 1014.1 hPa Calm   3.5 km/h 95% 0.0 mm 4.8mm
22:38 22.0 °C 21.2 °C 1014.1 hPa Calm   3.5 km/h 95% 0.0 mm 4.8mm
22:44 21.9 °C 21.3 °C 1014.1 hPa NNE 1.1 km/h 3.5 km/h 96% 0.0 mm 4.8mm
22:50 21.9 °C 21.3 °C 1014.4 hPa Calm   3.5 km/h 96% 0.0 mm 4.8mm
22:56 21.7 °C 21.1 °C 1014.1 hPa Calm   2.6 km/h 96% 0.0 mm 4.8mm
23:02 21.7 °C 21.1 °C 1014.4 hPa Calm   2.6 km/h 96% 0.0 mm 4.8mm
23:08 21.7 °C 21.1 °C 1014.1 hPa Calm   2.6 km/h 96% 0.0 mm 4.8mm
23:14 21.7 °C 21.1 °C 1014.1 hPa Calm   1.1 km/h 96% 0.0 mm 4.8mm
23:20 21.7 °C 21.1 °C 1014.1 hPa Calm   1.1 km/h 96% 0.0 mm 4.8mm
23:26 21.7 °C 21.2 °C 1014.1 hPa Calm     97% 0.0 mm 4.8mm
23:32 21.7 °C 21.2 °C 1014.1 hPa Calm     97% 0.0 mm 4.8mm
23:38 21.7 °C 21.2 °C 1014.4 hPa Calm   2.6 km/h 97% 0.0 mm 4.8mm
23:44 21.7 °C 21.2 °C 1014.1 hPa Calm   2.6 km/h 97% 0.0 mm 4.8mm
23:50 21.7 °C 21.2 °C 1014.1 hPa Calm   1.1 km/h 97% 0.0 mm 4.8mm
23:56 21.7 °C 21.2 °C 1014.1 hPa Calm   3.5 km/h 97% 0.0 mm 4.8mm
Opotiki Town Weather
Compliments of Weather Underground - memory used : 2 mb

NZ Local Weather Forum      Cumulus Top Weather Sites      New Zealand Top40 Weather Station Sites      Flag Counter